sensor_id;sensor_type;location;lat;lon;timestamp;P1;durP1;ratioP1;P2;durP2;ratioP2
78927;SDS011;68322;22.726;113.540;2023-09-19T00:00:58;8.98;;;4.20;;
78927;SDS011;68322;22.726;113.540;2023-09-19T00:03:25;11.20;;;5.00;;
78927;SDS011;68322;22.726;113.540;2023-09-19T00:05:53;11.43;;;4.70;;
78927;SDS011;68322;22.726;113.540;2023-09-19T00:08:21;12.25;;;4.70;;
78927;SDS011;68322;22.726;113.540;2023-09-19T00:10:47;11.30;;;5.40;;
78927;SDS011;68322;22.726;113.540;2023-09-19T00:13:14;9.63;;;5.72;;
78927;SDS011;68322;22.726;113.540;2023-09-19T00:15:41;12.55;;;4.47;;
78927;SDS011;68322;22.726;113.540;2023-09-19T00:18:12;14.05;;;5.38;;
78927;SDS011;68322;22.726;113.540;2023-09-19T00:20:40;9.30;;;5.47;;
78927;SDS011;68322;22.726;113.540;2023-09-19T00:23:07;11.50;;;5.45;;
78927;SDS011;68322;22.726;113.540;2023-09-19T00:25:36;12.82;;;7.63;;
78927;SDS011;68322;22.726;113.540;2023-09-19T00:28:04;13.27;;;7.72;;
78927;SDS011;68322;22.726;113.540;2023-09-19T00:30:31;10.10;;;7.22;;
78927;SDS011;68322;22.726;113.540;2023-09-19T00:32:58;15.70;;;6.97;;
78927;SDS011;68322;22.726;113.540;2023-09-19T00:35:26;13.50;;;6.13;;
78927;SDS011;68322;22.726;113.540;2023-09-19T00:37:53;13.68;;;6.57;;
78927;SDS011;68322;22.726;113.540;2023-09-19T00:40:21;15.45;;;7.75;;
78927;SDS011;68322;22.726;113.540;2023-09-19T00:42:48;11.38;;;5.90;;
78927;SDS011;68322;22.726;113.540;2023-09-19T00:45:16;13.63;;;5.40;;
78927;SDS011;68322;22.726;113.540;2023-09-19T00:47:44;11.55;;;5.90;;
78927;SDS011;68322;22.726;113.540;2023-09-19T00:50:11;10.23;;;4.85;;
78927;SDS011;68322;22.726;113.540;2023-09-19T00:52:40;11.38;;;5.88;;
78927;SDS011;68322;22.726;113.540;2023-09-19T00:55:09;13.95;;;5.75;;
78927;SDS011;68322;22.726;113.540;2023-09-19T01:00:04;10.65;;;5.55;;
78927;SDS011;68322;22.726;113.540;2023-09-19T01:02:32;9.57;;;5.90;;
78927;SDS011;68322;22.726;113.540;2023-09-19T01:04:59;13.18;;;6.18;;
78927;SDS011;68322;22.726;113.540;2023-09-19T01:07:29;10.50;;;5.72;;
78927;SDS011;68322;22.726;113.540;2023-09-19T01:09:56;10.02;;;5.47;;
78927;SDS011;68322;22.726;113.540;2023-09-19T01:12:30;12.73;;;5.20;;
78927;SDS011;68322;22.726;113.540;2023-09-19T01:15:01;10.77;;;5.25;;
78927;SDS011;68322;22.726;113.540;2023-09-19T01:17:32;12.30;;;5.32;;
78927;SDS011;68322;22.726;113.540;2023-09-19T01:20:08;11.27;;;5.15;;
78927;SDS011;68322;22.726;113.540;2023-09-19T01:30:14;14.60;;;5.97;;
78927;SDS011;68322;22.726;113.540;2023-09-19T01:32:43;11.07;;;4.68;;
78927;SDS011;68322;22.726;113.540;2023-09-19T01:35:13;10.43;;;4.80;;
78927;SDS011;68322;22.726;113.540;2023-09-19T01:37:39;11.48;;;5.35;;
78927;SDS011;68322;22.726;113.540;2023-09-19T01:40:09;16.13;;;4.63;;
78927;SDS011;68322;22.726;113.540;2023-09-19T01:45:37;7.65;;;4.72;;
78927;SDS011;68322;22.726;113.540;2023-09-19T01:50:44;11.32;;;5.15;;
78927;SDS011;68322;22.726;113.540;2023-09-19T01:53:23;9.32;;;4.90;;
78927;SDS011;68322;22.726;113.540;2023-09-19T01:55:53;12.25;;;5.20;;
78927;SDS011;68322;22.726;113.540;2023-09-19T01:58:39;14.43;;;6.10;;
78927;SDS011;68322;22.726;113.540;2023-09-19T02:01:11;11.07;;;5.00;;
78927;SDS011;68322;22.726;113.540;2023-09-19T02:03:39;15.50;;;5.90;;
78927;SDS011;68322;22.726;113.540;2023-09-19T02:06:07;13.32;;;5.40;;
78927;SDS011;68322;22.726;113.540;2023-09-19T02:08:36;9.38;;;5.18;;
78927;SDS011;68322;22.726;113.540;2023-09-19T02:11:03;11.40;;;5.50;;
78927;SDS011;68322;22.726;113.540;2023-09-19T02:13:31;8.70;;;4.75;;
78927;SDS011;68322;22.726;113.540;2023-09-19T02:15:58;8.75;;;4.72;;
78927;SDS011;68322;22.726;113.540;2023-09-19T02:18:25;8.35;;;4.18;;
78927;SDS011;68322;22.726;113.540;2023-09-19T02:20:53;11.48;;;5.20;;
78927;SDS011;68322;22.726;113.540;2023-09-19T02:23:21;14.77;;;5.55;;
78927;SDS011;68322;22.726;113.540;2023-09-19T02:25:54;12.57;;;5.30;;
78927;SDS011;68322;22.726;113.540;2023-09-19T02:28:23;12.93;;;5.95;;
78927;SDS011;68322;22.726;113.540;2023-09-19T02:30:53;10.13;;;4.82;;
78927;SDS011;68322;22.726;113.540;2023-09-19T02:33:20;9.95;;;4.88;;
78927;SDS011;68322;22.726;113.540;2023-09-19T02:35:47;10.43;;;4.95;;
78927;SDS011;68322;22.726;113.540;2023-09-19T02:38:14;9.98;;;4.60;;
78927;SDS011;68322;22.726;113.540;2023-09-19T02:40:46;12.98;;;5.93;;
78927;SDS011;68322;22.726;113.540;2023-09-19T02:43:13;16.08;;;5.75;;
78927;SDS011;68322;22.726;113.540;2023-09-19T02:45:40;9.77;;;5.53;;
78927;SDS011;68322;22.726;113.540;2023-09-19T02:48:08;10.05;;;4.90;;
78927;SDS011;68322;22.726;113.540;2023-09-19T02:50:37;9.40;;;5.45;;
78927;SDS011;68322;22.726;113.540;2023-09-19T02:53:05;11.93;;;6.53;;
78927;SDS011;68322;22.726;113.540;2023-09-19T02:55:32;13.63;;;5.75;;
78927;SDS011;68322;22.726;113.540;2023-09-19T02:57:59;8.48;;;6.00;;
78927;SDS011;68322;22.726;113.540;2023-09-19T03:00:27;10.52;;;5.20;;
78927;SDS011;68322;22.726;113.540;2023-09-19T03:02:55;8.02;;;4.70;;
78927;SDS011;68322;22.726;113.540;2023-09-19T03:05:22;11.75;;;5.70;;
78927;SDS011;68322;22.726;113.540;2023-09-19T03:07:50;13.02;;;7.85;;
78927;SDS011;68322;22.726;113.540;2023-09-19T03:10:17;10.23;;;6.88;;
78927;SDS011;68322;22.726;113.540;2023-09-19T03:12:44;13.43;;;6.20;;
78927;SDS011;68322;22.726;113.540;2023-09-19T03:15:10;14.02;;;6.60;;
78927;SDS011;68322;22.726;113.540;2023-09-19T03:17:37;8.23;;;5.70;;
78927;SDS011;68322;22.726;113.540;2023-09-19T03:20:04;10.45;;;5.90;;
78927;SDS011;68322;22.726;113.540;2023-09-19T03:22:34;13.35;;;6.78;;
78927;SDS011;68322;22.726;113.540;2023-09-19T03:25:01;13.82;;;6.18;;
78927;SDS011;68322;22.726;113.540;2023-09-19T03:27:29;8.88;;;5.35;;
78927;SDS011;68322;22.726;113.540;2023-09-19T03:29:56;10.25;;;5.22;;
78927;SDS011;68322;22.726;113.540;2023-09-19T03:32:23;9.50;;;5.10;;
78927;SDS011;68322;22.726;113.540;2023-09-19T03:34:51;8.10;;;4.80;;
78927;SDS011;68322;22.726;113.540;2023-09-19T03:37:18;8.90;;;4.38;;
78927;SDS011;68322;22.726;113.540;2023-09-19T03:39:45;10.05;;;4.80;;
78927;SDS011;68322;22.726;113.540;2023-09-19T03:42:12;7.35;;;4.05;;
78927;SDS011;68322;22.726;113.540;2023-09-19T03:44:38;5.75;;;4.15;;
78927;SDS011;68322;22.726;113.540;2023-09-19T03:47:05;8.60;;;4.43;;
78927;SDS011;68322;22.726;113.540;2023-09-19T03:49:32;7.97;;;5.18;;
78927;SDS011;68322;22.726;113.540;2023-09-19T03:51:59;6.78;;;4.25;;
78927;SDS011;68322;22.726;113.540;2023-09-19T03:54:26;6.70;;;4.28;;
78927;SDS011;68322;22.726;113.540;2023-09-19T03:56:52;6.85;;;4.10;;
78927;SDS011;68322;22.726;113.540;2023-09-19T03:59:19;8.20;;;4.28;;
78927;SDS011;68322;22.726;113.540;2023-09-19T04:01:47;8.00;;;4.55;;
78927;SDS011;68322;22.726;113.540;2023-09-19T04:04:15;7.70;;;4.10;;
78927;SDS011;68322;22.726;113.540;2023-09-19T04:06:44;8.80;;;4.28;;
78927;SDS011;68322;22.726;113.540;2023-09-19T04:09:10;9.30;;;3.67;;
78927;SDS011;68322;22.726;113.540;2023-09-19T04:11:38;9.38;;;4.05;;
78927;SDS011;68322;22.726;113.540;2023-09-19T04:14:05;7.18;;;3.90;;
78927;SDS011;68322;22.726;113.540;2023-09-19T04:16:32;10.52;;;4.25;;
78927;SDS011;68322;22.726;113.540;2023-09-19T04:18:59;6.88;;;3.60;;
78927;SDS011;68322;22.726;113.540;2023-09-19T04:21:30;6.05;;;2.72;;
78927;SDS011;68322;22.726;113.540;2023-09-19T04:23:57;7.97;;;2.90;;
78927;SDS011;68322;22.726;113.540;2023-09-19T04:26:24;7.45;;;4.10;;
78927;SDS011;68322;22.726;113.540;2023-09-19T04:28:51;7.00;;;3.85;;
78927;SDS011;68322;22.726;113.540;2023-09-19T04:31:19;7.07;;;3.78;;
78927;SDS011;68322;22.726;113.540;2023-09-19T04:33:47;7.50;;;3.83;;
78927;SDS011;68322;22.726;113.540;2023-09-19T04:36:14;5.45;;;3.80;;
78927;SDS011;68322;22.726;113.540;2023-09-19T04:38:40;10.98;;;4.13;;
78927;SDS011;68322;22.726;113.540;2023-09-19T04:41:08;9.68;;;3.67;;
78927;SDS011;68322;22.726;113.540;2023-09-19T04:43:35;7.25;;;4.18;;
78927;SDS011;68322;22.726;113.540;2023-09-19T04:46:02;8.75;;;3.75;;
78927;SDS011;68322;22.726;113.540;2023-09-19T04:48:32;7.60;;;4.07;;
78927;SDS011;68322;22.726;113.540;2023-09-19T04:51:03;7.10;;;3.95;;
78927;SDS011;68322;22.726;113.540;2023-09-19T04:53:30;8.10;;;3.97;;
78927;SDS011;68322;22.726;113.540;2023-09-19T04:55:56;7.18;;;4.25;;
78927;SDS011;68322;22.726;113.540;2023-09-19T04:58:23;7.10;;;3.95;;
78927;SDS011;68322;22.726;113.540;2023-09-19T05:00:50;10.23;;;4.10;;
78927;SDS011;68322;22.726;113.540;2023-09-19T05:03:19;5.38;;;4.15;;
78927;SDS011;68322;22.726;113.540;2023-09-19T05:05:47;5.93;;;3.72;;
78927;SDS011;68322;22.726;113.540;2023-09-19T05:08:14;4.78;;;3.85;;
78927;SDS011;68322;22.726;113.540;2023-09-19T05:10:41;6.78;;;4.03;;
78927;SDS011;68322;22.726;113.540;2023-09-19T05:13:08;7.07;;;4.25;;
78927;SDS011;68322;22.726;113.540;2023-09-19T05:15:35;5.03;;;3.67;;
78927;SDS011;68322;22.726;113.540;2023-09-19T05:18:02;6.20;;;3.40;;
78927;SDS011;68322;22.726;113.540;2023-09-19T05:20:31;5.85;;;3.22;;
78927;SDS011;68322;22.726;113.540;2023-09-19T05:22:59;5.55;;;3.47;;
78927;SDS011;68322;22.726;113.540;2023-09-19T05:25:28;7.05;;;3.70;;
78927;SDS011;68322;22.726;113.540;2023-09-19T05:27:58;7.40;;;3.22;;
78927;SDS011;68322;22.726;113.540;2023-09-19T05:30:26;4.75;;;3.20;;
78927;SDS011;68322;22.726;113.540;2023-09-19T05:32:56;5.32;;;3.30;;
78927;SDS011;68322;22.726;113.540;2023-09-19T05:35:23;5.38;;;3.55;;
78927;SDS011;68322;22.726;113.540;2023-09-19T05:37:50;8.10;;;3.17;;
78927;SDS011;68322;22.726;113.540;2023-09-19T05:40:18;8.52;;;4.00;;
78927;SDS011;68322;22.726;113.540;2023-09-19T05:42:45;4.30;;;3.10;;
78927;SDS011;68322;22.726;113.540;2023-09-19T05:45:12;6.65;;;3.95;;
78927;SDS011;68322;22.726;113.540;2023-09-19T05:47:40;8.32;;;3.90;;
78927;SDS011;68322;22.726;113.540;2023-09-19T05:50:09;7.80;;;2.88;;
78927;SDS011;68322;22.726;113.540;2023-09-19T05:52:36;7.65;;;3.60;;
78927;SDS011;68322;22.726;113.540;2023-09-19T05:55:06;6.82;;;3.50;;
78927;SDS011;68322;22.726;113.540;2023-09-19T05:57:33;5.53;;;3.75;;
78927;SDS011;68322;22.726;113.540;2023-09-19T06:00:01;6.03;;;4.03;;
78927;SDS011;68322;22.726;113.540;2023-09-19T06:02:35;5.10;;;3.88;;
78927;SDS011;68322;22.726;113.540;2023-09-19T06:05:01;7.50;;;3.83;;
78927;SDS011;68322;22.726;113.540;2023-09-19T06:07:28;6.57;;;3.70;;
78927;SDS011;68322;22.726;113.540;2023-09-19T06:10:04;6.97;;;3.47;;
78927;SDS011;68322;22.726;113.540;2023-09-19T06:12:32;7.63;;;3.45;;
78927;SDS011;68322;22.726;113.540;2023-09-19T06:15:00;5.85;;;3.65;;
78927;SDS011;68322;22.726;113.540;2023-09-19T06:17:27;21.52;;;4.10;;
78927;SDS011;68322;22.726;113.540;2023-09-19T06:19:54;5.90;;;3.88;;
78927;SDS011;68322;22.726;113.540;2023-09-19T06:22:21;5.90;;;3.63;;
78927;SDS011;68322;22.726;113.540;2023-09-19T06:24:49;5.75;;;3.78;;
78927;SDS011;68322;22.726;113.540;2023-09-19T06:27:16;6.68;;;3.60;;
78927;SDS011;68322;22.726;113.540;2023-09-19T06:29:43;9.45;;;4.88;;
78927;SDS011;68322;22.726;113.540;2023-09-19T06:32:12;5.80;;;3.63;;
78927;SDS011;68322;22.726;113.540;2023-09-19T06:34:39;5.85;;;4.00;;
78927;SDS011;68322;22.726;113.540;2023-09-19T06:37:08;8.20;;;4.75;;
78927;SDS011;68322;22.726;113.540;2023-09-19T06:39:35;7.65;;;4.53;;
78927;SDS011;68322;22.726;113.540;2023-09-19T06:42:01;8.07;;;4.47;;
78927;SDS011;68322;22.726;113.540;2023-09-19T06:44:28;6.30;;;4.53;;
78927;SDS011;68322;22.726;113.540;2023-09-19T06:46:57;6.75;;;5.15;;
78927;SDS011;68322;22.726;113.540;2023-09-19T06:49:24;7.63;;;4.55;;
78927;SDS011;68322;22.726;113.540;2023-09-19T06:51:50;13.77;;;4.60;;
78927;SDS011;68322;22.726;113.540;2023-09-19T06:54:20;9.63;;;5.13;;
78927;SDS011;68322;22.726;113.540;2023-09-19T06:56:46;6.55;;;4.85;;
78927;SDS011;68322;22.726;113.540;2023-09-19T06:59:13;10.02;;;5.10;;
78927;SDS011;68322;22.726;113.540;2023-09-19T07:01:40;7.57;;;5.38;;
78927;SDS011;68322;22.726;113.540;2023-09-19T07:04:09;7.18;;;4.78;;
78927;SDS011;68322;22.726;113.540;2023-09-19T07:06:38;9.05;;;5.53;;
78927;SDS011;68322;22.726;113.540;2023-09-19T07:09:05;9.95;;;5.45;;
78927;SDS011;68322;22.726;113.540;2023-09-19T07:14:00;9.50;;;5.43;;
78927;SDS011;68322;22.726;113.540;2023-09-19T07:16:28;9.80;;;5.38;;
78927;SDS011;68322;22.726;113.540;2023-09-19T07:18:55;8.20;;;5.38;;
78927;SDS011;68322;22.726;113.540;2023-09-19T07:21:23;9.00;;;5.68;;
78927;SDS011;68322;22.726;113.540;2023-09-19T07:23:50;9.93;;;5.65;;
78927;SDS011;68322;22.726;113.540;2023-09-19T07:26:17;11.68;;;5.22;;
78927;SDS011;68322;22.726;113.540;2023-09-19T07:31:12;13.85;;;6.00;;
78927;SDS011;68322;22.726;113.540;2023-09-19T07:33:39;10.48;;;5.60;;
78927;SDS011;68322;22.726;113.540;2023-09-19T07:36:09;7.35;;;5.47;;
78927;SDS011;68322;22.726;113.540;2023-09-19T07:38:36;8.05;;;5.28;;
78927;SDS011;68322;22.726;113.540;2023-09-19T07:41:03;13.25;;;5.85;;
78927;SDS011;68322;22.726;113.540;2023-09-19T07:43:31;14.35;;;5.20;;
78927;SDS011;68322;22.726;113.540;2023-09-19T07:46:02;12.15;;;5.45;;
78927;SDS011;68322;22.726;113.540;2023-09-19T07:48:29;7.93;;;4.70;;
78927;SDS011;68322;22.726;113.540;2023-09-19T07:50:56;7.32;;;5.03;;
78927;SDS011;68322;22.726;113.540;2023-09-19T07:53:24;9.73;;;5.10;;
78927;SDS011;68322;22.726;113.540;2023-09-19T07:56:01;15.70;;;5.38;;
78927;SDS011;68322;22.726;113.540;2023-09-19T07:58:27;10.82;;;4.82;;
78927;SDS011;68322;22.726;113.540;2023-09-19T08:00:54;8.00;;;4.55;;
78927;SDS011;68322;22.726;113.540;2023-09-19T08:03:21;9.95;;;4.63;;
78927;SDS011;68322;22.726;113.540;2023-09-19T08:05:48;7.55;;;4.50;;
78927;SDS011;68322;22.726;113.540;2023-09-19T08:08:15;6.85;;;4.75;;
78927;SDS011;68322;22.726;113.540;2023-09-19T08:10:44;11.27;;;3.85;;
78927;SDS011;68322;22.726;113.540;2023-09-19T08:13:14;6.38;;;4.07;;
78927;SDS011;68322;22.726;113.540;2023-09-19T08:15:43;6.25;;;4.65;;
78927;SDS011;68322;22.726;113.540;2023-09-19T08:18:10;6.07;;;3.85;;
78927;SDS011;68322;22.726;113.540;2023-09-19T08:20:37;9.30;;;4.28;;
78927;SDS011;68322;22.726;113.540;2023-09-19T08:23:05;9.40;;;4.45;;
78927;SDS011;68322;22.726;113.540;2023-09-19T08:25:35;8.25;;;3.95;;
78927;SDS011;68322;22.726;113.540;2023-09-19T08:28:04;6.22;;;4.05;;
78927;SDS011;68322;22.726;113.540;2023-09-19T08:30:33;8.13;;;3.35;;
78927;SDS011;68322;22.726;113.540;2023-09-19T08:33:00;8.70;;;3.55;;
78927;SDS011;68322;22.726;113.540;2023-09-19T08:35:29;8.07;;;4.22;;
78927;SDS011;68322;22.726;113.540;2023-09-19T08:37:56;11.18;;;4.28;;
78927;SDS011;68322;22.726;113.540;2023-09-19T08:40:26;6.45;;;3.08;;
78927;SDS011;68322;22.726;113.540;2023-09-19T08:42:55;5.55;;;3.90;;
78927;SDS011;68322;22.726;113.540;2023-09-19T08:45:22;6.63;;;3.50;;
78927;SDS011;68322;22.726;113.540;2023-09-19T08:50:28;8.48;;;4.38;;
78927;SDS011;68322;22.726;113.540;2023-09-19T08:53:00;8.77;;;3.85;;
78927;SDS011;68322;22.726;113.540;2023-09-19T08:55:28;9.93;;;4.00;;
78927;SDS011;68322;22.726;113.540;2023-09-19T08:58:06;9.45;;;4.03;;
78927;SDS011;68322;22.726;113.540;2023-09-19T09:00:38;9.70;;;3.70;;
78927;SDS011;68322;22.726;113.540;2023-09-19T09:03:09;6.85;;;3.85;;
78927;SDS011;68322;22.726;113.540;2023-09-19T09:05:35;7.95;;;3.80;;
78927;SDS011;68322;22.726;113.540;2023-09-19T09:08:06;8.30;;;4.10;;
78927;SDS011;68322;22.726;113.540;2023-09-19T09:10:32;7.57;;;4.20;;
78927;SDS011;68322;22.726;113.540;2023-09-19T09:12:59;9.13;;;3.88;;
78927;SDS011;68322;22.726;113.540;2023-09-19T09:15:26;7.85;;;3.85;;
78927;SDS011;68322;22.726;113.540;2023-09-19T09:17:56;7.72;;;3.80;;
78927;SDS011;68322;22.726;113.540;2023-09-19T09:20:23;10.77;;;3.67;;
78927;SDS011;68322;22.726;113.540;2023-09-19T09:22:56;8.00;;;3.85;;
78927;SDS011;68322;22.726;113.540;2023-09-19T09:28:34;11.50;;;4.20;;
78927;SDS011;68322;22.726;113.540;2023-09-19T09:31:01;7.40;;;3.80;;
78927;SDS011;68322;22.726;113.540;2023-09-19T09:33:33;7.78;;;3.17;;
78927;SDS011;68322;22.726;113.540;2023-09-19T09:36:00;7.03;;;3.53;;
78927;SDS011;68322;22.726;113.540;2023-09-19T09:41:21;13.23;;;4.07;;
78927;SDS011;68322;22.726;113.540;2023-09-19T09:44:18;11.95;;;4.75;;
78927;SDS011;68322;22.726;113.540;2023-09-19T09:46:45;10.25;;;4.00;;
78927;SDS011;68322;22.726;113.540;2023-09-19T09:49:23;11.13;;;4.32;;
78927;SDS011;68322;22.726;113.540;2023-09-19T09:51:58;8.27;;;4.40;;
78927;SDS011;68322;22.726;113.540;2023-09-19T09:54:29;12.48;;;4.05;;
78927;SDS011;68322;22.726;113.540;2023-09-19T09:57:05;9.82;;;4.57;;
78927;SDS011;68322;22.726;113.540;2023-09-19T09:59:56;12.35;;;4.38;;
78927;SDS011;68322;22.726;113.540;2023-09-19T10:02:42;9.55;;;4.00;;
78927;SDS011;68322;22.726;113.540;2023-09-19T10:07:48;18.98;;;4.65;;
78927;SDS011;68322;22.726;113.540;2023-09-19T10:10:49;7.78;;;4.43;;
78927;SDS011;68322;22.726;113.540;2023-09-19T10:13:19;9.48;;;4.60;;
78927;SDS011;68322;22.726;113.540;2023-09-19T10:15:51;11.23;;;5.07;;
78927;SDS011;68322;22.726;113.540;2023-09-19T10:18:23;8.93;;;4.35;;
78927;SDS011;68322;22.726;113.540;2023-09-19T10:20:51;11.32;;;4.72;;
78927;SDS011;68322;22.726;113.540;2023-09-19T10:23:24;13.95;;;5.20;;
78927;SDS011;68322;22.726;113.540;2023-09-19T10:25:52;13.13;;;5.13;;
78927;SDS011;68322;22.726;113.540;2023-09-19T10:28:20;9.35;;;3.78;;
78927;SDS011;68322;22.726;113.540;2023-09-19T10:30:50;9.52;;;4.40;;
78927;SDS011;68322;22.726;113.540;2023-09-19T10:33:19;14.55;;;4.20;;
78927;SDS011;68322;22.726;113.540;2023-09-19T10:35:52;8.32;;;4.85;;
78927;SDS011;68322;22.726;113.540;2023-09-19T10:38:23;12.65;;;4.57;;
78927;SDS011;68322;22.726;113.540;2023-09-19T10:40:51;10.60;;;4.75;;
78927;SDS011;68322;22.726;113.540;2023-09-19T10:43:19;11.98;;;4.40;;
78927;SDS011;68322;22.726;113.540;2023-09-19T10:45:47;9.27;;;4.35;;
78927;SDS011;68322;22.726;113.540;2023-09-19T10:48:20;10.43;;;5.07;;
78927;SDS011;68322;22.726;113.540;2023-09-19T10:50:52;18.55;;;4.55;;
78927;SDS011;68322;22.726;113.540;2023-09-19T10:53:23;13.45;;;4.97;;
78927;SDS011;68322;22.726;113.540;2023-09-19T10:55:57;9.73;;;5.05;;
78927;SDS011;68322;22.726;113.540;2023-09-19T10:58:28;10.70;;;4.88;;
78927;SDS011;68322;22.726;113.540;2023-09-19T11:03:22;11.05;;;4.40;;
78927;SDS011;68322;22.726;113.540;2023-09-19T11:06:05;12.27;;;4.25;;
78927;SDS011;68322;22.726;113.540;2023-09-19T11:14:15;11.80;;;4.18;;
78927;SDS011;68322;22.726;113.540;2023-09-19T11:22:19;10.48;;;5.03;;
78927;SDS011;68322;22.726;113.540;2023-09-19T11:24:47;16.42;;;4.45;;
78927;SDS011;68322;22.726;113.540;2023-09-19T11:27:17;11.55;;;4.65;;
78927;SDS011;68322;22.726;113.540;2023-09-19T11:29:45;13.50;;;4.72;;
78927;SDS011;68322;22.726;113.540;2023-09-19T11:32:14;12.70;;;5.25;;
78927;SDS011;68322;22.726;113.540;2023-09-19T11:34:43;11.70;;;5.13;;
78927;SDS011;68322;22.726;113.540;2023-09-19T11:37:59;8.32;;;4.28;;
78927;SDS011;68322;22.726;113.540;2023-09-19T11:42:53;9.57;;;4.97;;
78927;SDS011;68322;22.726;113.540;2023-09-19T11:48:20;11.35;;;4.22;;
78927;SDS011;68322;22.726;113.540;2023-09-19T11:50:52;17.20;;;5.20;;
78927;SDS011;68322;22.726;113.540;2023-09-19T11:53:21;9.25;;;4.40;;
78927;SDS011;68322;22.726;113.540;2023-09-19T11:55:49;12.43;;;4.88;;
78927;SDS011;68322;22.726;113.540;2023-09-19T11:58:18;7.95;;;4.35;;
78927;SDS011;68322;22.726;113.540;2023-09-19T12:00:46;7.43;;;3.83;;
78927;SDS011;68322;22.726;113.540;2023-09-19T12:03:24;9.80;;;3.83;;
78927;SDS011;68322;22.726;113.540;2023-09-19T12:05:55;9.23;;;4.22;;
78927;SDS011;68322;22.726;113.540;2023-09-19T12:08:23;7.65;;;3.60;;
78927;SDS011;68322;22.726;113.540;2023-09-19T12:10:52;9.20;;;3.45;;
78927;SDS011;68322;22.726;113.540;2023-09-19T12:15:47;8.30;;;3.13;;
78927;SDS011;68322;22.726;113.540;2023-09-19T12:18:30;9.00;;;3.55;;
78927;SDS011;68322;22.726;113.540;2023-09-19T12:20:56;7.63;;;3.55;;
78927;SDS011;68322;22.726;113.540;2023-09-19T12:23:24;6.28;;;3.80;;
78927;SDS011;68322;22.726;113.540;2023-09-19T12:25:54;10.43;;;3.55;;
78927;SDS011;68322;22.726;113.540;2023-09-19T12:28:23;8.98;;;3.35;;
78927;SDS011;68322;22.726;113.540;2023-09-19T12:30:52;5.28;;;3.50;;
78927;SDS011;68322;22.726;113.540;2023-09-19T12:33:23;6.78;;;3.60;;
78927;SDS011;68322;22.726;113.540;2023-09-19T12:35:56;8.38;;;4.05;;
78927;SDS011;68322;22.726;113.540;2023-09-19T12:38:27;7.63;;;4.35;;
78927;SDS011;68322;22.726;113.540;2023-09-19T12:40:57;6.70;;;3.72;;
78927;SDS011;68322;22.726;113.540;2023-09-19T12:43:28;7.13;;;4.60;;
78927;SDS011;68322;22.726;113.540;2023-09-19T12:45:58;7.55;;;4.10;;
78927;SDS011;68322;22.726;113.540;2023-09-19T12:48:25;8.32;;;4.53;;
78927;SDS011;68322;22.726;113.540;2023-09-19T12:51:09;12.57;;;4.32;;
78927;SDS011;68322;22.726;113.540;2023-09-19T12:53:42;8.68;;;4.18;;
78927;SDS011;68322;22.726;113.540;2023-09-19T12:56:11;17.20;;;5.78;;
78927;SDS011;68322;22.726;113.540;2023-09-19T12:58:55;9.20;;;4.68;;
78927;SDS011;68322;22.726;113.540;2023-09-19T13:01:26;11.48;;;5.53;;
78927;SDS011;68322;22.726;113.540;2023-09-19T13:07:05;10.10;;;4.57;;
78927;SDS011;68322;22.726;113.540;2023-09-19T13:09:34;10.90;;;4.78;;
78927;SDS011;68322;22.726;113.540;2023-09-19T13:12:01;11.23;;;5.07;;
78927;SDS011;68322;22.726;113.540;2023-09-19T13:14:28;7.80;;;5.10;;
78927;SDS011;68322;22.726;113.540;2023-09-19T13:17:09;7.88;;;5.20;;
78927;SDS011;68322;22.726;113.540;2023-09-19T13:19:43;9.50;;;5.00;;
78927;SDS011;68322;22.726;113.540;2023-09-19T13:25:09;13.05;;;5.30;;
78927;SDS011;68322;22.726;113.540;2023-09-19T13:27:48;11.25;;;5.10;;
78927;SDS011;68322;22.726;113.540;2023-09-19T13:30:20;10.13;;;5.22;;
78927;SDS011;68322;22.726;113.540;2023-09-19T13:32:47;8.85;;;4.70;;
78927;SDS011;68322;22.726;113.540;2023-09-19T13:35:17;6.88;;;4.28;;
78927;SDS011;68322;22.726;113.540;2023-09-19T13:37:46;7.50;;;4.40;;
78927;SDS011;68322;22.726;113.540;2023-09-19T13:40:17;8.57;;;4.03;;
78927;SDS011;68322;22.726;113.540;2023-09-19T13:42:43;7.78;;;4.90;;
78927;SDS011;68322;22.726;113.540;2023-09-19T13:45:10;8.27;;;4.50;;
78927;SDS011;68322;22.726;113.540;2023-09-19T13:47:38;7.57;;;4.75;;
78927;SDS011;68322;22.726;113.540;2023-09-19T13:50:05;9.02;;;4.88;;
78927;SDS011;68322;22.726;113.540;2023-09-19T13:52:32;7.38;;;5.45;;
78927;SDS011;68322;22.726;113.540;2023-09-19T13:54:59;8.77;;;5.75;;
78927;SDS011;68322;22.726;113.540;2023-09-19T13:57:26;7.53;;;4.88;;
78927;SDS011;68322;22.726;113.540;2023-09-19T13:59:54;13.35;;;5.90;;
78927;SDS011;68322;22.726;113.540;2023-09-19T14:02:23;10.45;;;5.28;;
78927;SDS011;68322;22.726;113.540;2023-09-19T14:04:50;12.30;;;5.57;;
78927;SDS011;68322;22.726;113.540;2023-09-19T14:07:18;10.48;;;5.72;;
78927;SDS011;68322;22.726;113.540;2023-09-19T14:09:45;10.07;;;6.68;;
78927;SDS011;68322;22.726;113.540;2023-09-19T14:12:13;13.65;;;6.20;;
78927;SDS011;68322;22.726;113.540;2023-09-19T14:14:43;12.73;;;6.35;;
78927;SDS011;68322;22.726;113.540;2023-09-19T14:17:10;7.63;;;4.97;;
78927;SDS011;68322;22.726;113.540;2023-09-19T14:19:41;13.82;;;5.22;;
78927;SDS011;68322;22.726;113.540;2023-09-19T14:22:09;8.85;;;5.30;;
78927;SDS011;68322;22.726;113.540;2023-09-19T14:24:36;10.15;;;5.38;;
78927;SDS011;68322;22.726;113.540;2023-09-19T14:27:03;9.65;;;5.30;;
78927;SDS011;68322;22.726;113.540;2023-09-19T14:29:32;7.53;;;5.60;;
78927;SDS011;68322;22.726;113.540;2023-09-19T14:31:58;10.10;;;6.20;;
78927;SDS011;68322;22.726;113.540;2023-09-19T14:34:26;10.63;;;5.78;;
78927;SDS011;68322;22.726;113.540;2023-09-19T14:36:55;10.25;;;5.93;;
78927;SDS011;68322;22.726;113.540;2023-09-19T14:39:25;11.90;;;6.28;;
78927;SDS011;68322;22.726;113.540;2023-09-19T14:41:52;12.00;;;5.63;;
78927;SDS011;68322;22.726;113.540;2023-09-19T14:44:19;11.75;;;6.80;;
78927;SDS011;68322;22.726;113.540;2023-09-19T14:46:51;15.98;;;5.97;;
78927;SDS011;68322;22.726;113.540;2023-09-19T14:49:21;13.10;;;5.75;;
78927;SDS011;68322;22.726;113.540;2023-09-19T14:51:49;14.80;;;6.00;;
78927;SDS011;68322;22.726;113.540;2023-09-19T14:54:17;13.70;;;5.88;;
78927;SDS011;68322;22.726;113.540;2023-09-19T14:56:44;13.75;;;6.13;;
78927;SDS011;68322;22.726;113.540;2023-09-19T14:59:11;8.73;;;5.32;;
78927;SDS011;68322;22.726;113.540;2023-09-19T15:01:38;13.60;;;5.65;;
78927;SDS011;68322;22.726;113.540;2023-09-19T15:04:09;8.85;;;5.18;;
78927;SDS011;68322;22.726;113.540;2023-09-19T15:06:36;13.13;;;5.32;;
78927;SDS011;68322;22.726;113.540;2023-09-19T15:09:03;10.13;;;5.40;;
78927;SDS011;68322;22.726;113.540;2023-09-19T15:11:30;14.15;;;5.55;;
78927;SDS011;68322;22.726;113.540;2023-09-19T15:13:57;15.93;;;5.40;;
78927;SDS011;68322;22.726;113.540;2023-09-19T15:16:25;10.70;;;5.20;;
78927;SDS011;68322;22.726;113.540;2023-09-19T15:18:54;13.68;;;5.18;;
78927;SDS011;68322;22.726;113.540;2023-09-19T15:21:21;8.30;;;5.10;;
78927;SDS011;68322;22.726;113.540;2023-09-19T15:23:49;11.48;;;5.07;;
78927;SDS011;68322;22.726;113.540;2023-09-19T15:26:17;6.95;;;4.22;;